createdAt,value
2022-08-22T00:01:33.811Z,3.63
2022-08-22T00:02:58.483Z,3.58
2022-08-22T00:02:59.527Z,3.90
2022-08-22T00:03:08.204Z,3.45
2022-08-22T00:04:15.642Z,3.63
2022-08-22T00:06:56.515Z,3.85
2022-08-22T00:09:33.934Z,4.18
2022-08-22T00:12:19.188Z,3.65
2022-08-22T00:14:59.817Z,4.10
2022-08-22T00:17:42.908Z,3.72
2022-08-22T00:20:28.128Z,3.85
2022-08-22T00:23:04.354Z,4.00
2022-08-22T00:25:55.767Z,3.92
2022-08-22T00:28:32.965Z,3.95
2022-08-22T00:31:15.540Z,3.70
2022-08-22T00:33:51.222Z,3.63
2022-08-22T00:36:31.641Z,3.95
2022-08-22T00:39:12.178Z,4.45
2022-08-22T00:42:34.040Z,3.88
2022-08-22T00:45:43.246Z,4.03
2022-08-22T00:48:50.467Z,3.53
2022-08-22T00:52:03.897Z,4.18
2022-08-22T00:55:09.305Z,3.40
2022-08-22T00:58:07.042Z,3.65
2022-08-22T01:00:44.705Z,3.45
2022-08-22T01:03:54.472Z,4.00
2022-08-22T01:06:39.623Z,4.03
2022-08-22T01:09:24.081Z,4.07
2022-08-22T01:12:28.242Z,3.70
2022-08-22T01:15:03.644Z,3.80
2022-08-22T01:18:13.372Z,3.95
2022-08-22T01:21:36.787Z,4.00
2022-08-22T01:25:15.727Z,4.40
2022-08-22T01:28:37.791Z,3.33
2022-08-22T01:32:02.449Z,4.05
2022-08-22T01:35:34.228Z,4.03
2022-08-22T01:38:45.269Z,4.82
2022-08-22T01:41:59.574Z,3.95
2022-08-22T01:44:50.755Z,4.25
2022-08-22T01:47:26.358Z,4.13
2022-08-22T01:50:03.524Z,4.22
2022-08-22T01:52:43.846Z,4.00
2022-08-22T01:55:25.734Z,4.00
2022-08-22T01:57:58.928Z,4.10
2022-08-22T02:00:35.943Z,4.20
2022-08-22T02:03:22.145Z,3.92
2022-08-22T02:05:59.558Z,4.05
2022-08-22T02:08:41.517Z,4.25
2022-08-22T02:11:14.229Z,3.92
2022-08-22T02:13:57.827Z,4.25
2022-08-22T02:16:38.216Z,4.32
2022-08-22T02:19:29.437Z,4.85
2022-08-22T02:22:07.706Z,4.97
2022-08-22T02:24:52.331Z,3.95
2022-08-22T02:27:36.842Z,4.32
2022-08-22T02:30:12.327Z,4.45
2022-08-22T02:32:56.582Z,4.50
2022-08-22T02:35:33.538Z,4.70
2022-08-22T02:38:24.046Z,4.40
2022-08-22T02:41:08.978Z,4.53
2022-08-22T02:43:47.631Z,4.60
2022-08-22T02:46:33.716Z,4.57
2022-08-22T02:49:13.607Z,4.00
2022-08-22T02:51:52.763Z,4.45
2022-08-22T02:54:27.851Z,4.40
2022-08-22T02:57:13.067Z,4.28
2022-08-22T03:00:31.720Z,4.53
2022-08-22T03:03:07.729Z,4.75
2022-08-22T03:06:02.358Z,4.22
2022-08-22T03:08:38.909Z,4.63
2022-08-22T03:11:24.971Z,4.40
2022-08-22T03:14:07.345Z,4.68
2022-08-22T03:16:41.694Z,4.38
2022-08-22T03:19:18.804Z,5.65
2022-08-22T03:21:56.672Z,4.72
2022-08-22T03:24:32.621Z,4.80
2022-08-22T03:27:09.610Z,4.63
2022-08-22T03:29:47.879Z,4.60
2022-08-22T03:32:21.241Z,4.38
2022-08-22T03:35:00.233Z,4.55
2022-08-22T03:37:40.459Z,4.13
2022-08-22T03:40:31.929Z,4.15
2022-08-22T03:43:31.647Z,4.80
2022-08-22T03:46:58.189Z,4.47
2022-08-22T03:50:12.202Z,5.05
2022-08-22T03:53:34.267Z,4.30
2022-08-22T03:57:02.661Z,4.35
2022-08-22T04:00:10.555Z,5.00
2022-08-22T04:03:36.995Z,4.05
2022-08-22T04:07:00.029Z,4.78
2022-08-22T04:10:20.914Z,4.60
2022-08-22T04:13:21.814Z,4.30
2022-08-22T04:16:50.950Z,4.60
2022-08-22T04:22:34.104Z,4.72
2022-08-22T04:25:09.880Z,4.55
2022-08-22T04:27:48.422Z,4.85
2022-08-22T04:30:26.624Z,4.90
2022-08-22T04:33:06.489Z,4.95
2022-08-22T04:35:41.617Z,4.32
2022-08-22T04:38:19.256Z,4.57
2022-08-22T04:40:56.376Z,4.43
2022-08-22T04:43:32.388Z,4.60
2022-08-22T04:46:10.684Z,4.63
2022-08-22T04:48:46.105Z,4.57
2022-08-22T04:51:24.164Z,5.78
2022-08-22T04:54:38.641Z,5.13
2022-08-22T04:57:23.692Z,4.90
2022-08-22T04:59:53.508Z,4.90
2022-08-22T05:02:27.542Z,4.50
2022-08-22T05:05:04.785Z,5.60
2022-08-22T05:07:49.215Z,4.50
2022-08-22T05:10:24.587Z,5.13
2022-08-22T05:12:59.046Z,4.65
2022-08-22T05:15:35.477Z,4.95
2022-08-22T05:18:10.402Z,4.60
2022-08-22T05:20:42.820Z,5.80
2022-08-22T05:23:18.937Z,5.13
2022-08-22T05:25:52.900Z,5.35
2022-08-22T05:28:34.996Z,4.80
2022-08-22T05:31:08.955Z,4.95
2022-08-22T05:33:44.168Z,5.43
2022-08-22T05:36:20.605Z,5.57
2022-08-22T05:38:54.691Z,5.00
2022-08-22T05:41:31.865Z,5.25
2022-08-22T05:44:01.004Z,5.35
2022-08-22T05:46:45.673Z,5.35
2022-08-22T05:49:21.517Z,4.78
2022-08-22T05:52:08.788Z,5.90
2022-08-22T05:54:51.212Z,5.70
2022-08-22T05:57:29.909Z,6.15
2022-08-22T06:00:10.801Z,5.40
2022-08-22T06:02:55.545Z,5.97
2022-08-22T06:05:30.111Z,5.57
2022-08-22T06:08:07.418Z,5.43
2022-08-22T06:10:44.470Z,5.55
2022-08-22T06:13:32.100Z,5.72
2022-08-22T06:16:16.833Z,5.10
2022-08-22T06:18:46.578Z,5.25
2022-08-22T06:21:23.197Z,5.70
2022-08-22T06:23:58.639Z,5.05
2022-08-22T06:26:34.659Z,5.38
2022-08-22T06:29:08.512Z,5.57
2022-08-22T06:31:44.858Z,5.22
2022-08-22T06:34:18.723Z,5.40
2022-08-22T06:36:52.167Z,4.78
2022-08-22T06:39:25.291Z,5.10
2022-08-22T06:41:57.993Z,5.03
2022-08-22T06:44:33.020Z,5.15
2022-08-22T06:47:06.951Z,4.32
2022-08-22T06:49:38.970Z,4.95
2022-08-22T06:52:12.853Z,4.32
2022-08-22T06:54:48.822Z,4.00
2022-08-22T06:57:33.121Z,4.55
2022-08-22T07:00:09.701Z,4.63
2022-08-22T07:02:44.872Z,4.00
2022-08-22T07:05:20.079Z,5.00
2022-08-22T07:07:48.915Z,4.07
2022-08-22T07:10:18.565Z,4.10
2022-08-22T07:12:51.369Z,3.88
2022-08-22T07:15:36.607Z,3.88
2022-08-22T07:18:10.152Z,3.78
2022-08-22T07:20:45.223Z,3.60
2022-08-22T07:23:32.525Z,3.67
2022-08-22T07:26:22.222Z,3.35
2022-08-22T07:28:58.685Z,3.25
2022-08-22T07:31:37.815Z,3.25
2022-08-22T07:34:27.039Z,3.70
2022-08-22T07:37:05.558Z,3.53
2022-08-22T07:39:44.017Z,3.40
2022-08-22T07:42:18.742Z,3.50
2022-08-22T07:45:03.916Z,3.80
2022-08-22T07:47:59.188Z,3.42
2022-08-22T07:50:32.746Z,3.33
2022-08-22T07:53:13.467Z,3.67
2022-08-22T07:55:49.898Z,3.80
2022-08-22T07:58:19.991Z,3.85
2022-08-22T08:00:51.373Z,3.25
2022-08-22T08:03:24.521Z,3.17
2022-08-22T08:05:53.866Z,3.40
2022-08-22T08:08:27.586Z,3.03
2022-08-22T08:11:00.315Z,3.83
2022-08-22T08:13:36.495Z,3.50
2022-08-22T08:16:10.933Z,3.33
2022-08-22T08:18:41.807Z,3.42
2022-08-22T08:21:31.640Z,3.65
2022-08-22T08:24:03.030Z,3.63
2022-08-22T08:26:39.718Z,3.55
2022-08-22T08:29:07.466Z,3.33
2022-08-22T08:31:44.988Z,3.35
2022-08-22T08:34:22.639Z,3.95
2022-08-22T08:36:55.865Z,3.53
2022-08-22T08:39:35.543Z,3.55
2022-08-22T08:43:04.811Z,3.75
2022-08-22T08:46:16.198Z,3.67
2022-08-22T08:49:25.256Z,3.95
2022-08-22T08:52:21.222Z,3.05
2022-08-22T08:55:19.650Z,2.83
2022-08-22T08:58:17.834Z,3.47
2022-08-22T09:00:59.477Z,3.20
2022-08-22T09:04:01.203Z,3.65
2022-08-22T09:10:09.791Z,3.58
2022-08-22T09:13:12.289Z,3.35
2022-08-22T09:16:12.524Z,3.65
2022-08-22T09:19:14.162Z,3.50
2022-08-22T09:22:27.504Z,3.05
2022-08-22T09:25:23.504Z,3.67
2022-08-22T09:28:02.861Z,2.88
2022-08-22T09:31:02.535Z,3.03
2022-08-22T09:33:55.981Z,3.17
2022-08-22T09:36:34.928Z,3.10
2022-08-22T09:39:17.355Z,3.35
2022-08-22T09:42:00.789Z,3.10
2022-08-22T09:44:43.770Z,3.10
2022-08-22T09:47:25.362Z,2.40
2022-08-22T09:50:09.788Z,2.75
2022-08-22T09:53:04.791Z,3.00
2022-08-22T09:55:50.566Z,3.10
2022-08-22T09:58:30.249Z,3.33
2022-08-22T10:01:04.037Z,2.83
2022-08-22T10:04:29.361Z,2.75
2022-08-22T10:07:11.629Z,3.28
2022-08-22T10:09:55.973Z,3.00
2022-08-22T10:12:36.422Z,2.90
2022-08-22T10:15:20.299Z,2.95
2022-08-22T10:18:10.385Z,2.78
2022-08-22T10:21:02.999Z,2.80
2022-08-22T10:23:40.737Z,3.47
2022-08-22T10:26:29.154Z,3.22
2022-08-22T10:29:14.973Z,3.10
2022-08-22T10:31:59.534Z,3.15
2022-08-22T10:34:36.800Z,2.80
2022-08-22T10:37:23.785Z,3.20
2022-08-22T10:40:02.582Z,2.50
2022-08-22T10:42:35.218Z,3.35
2022-08-22T10:45:23.890Z,3.42
2022-08-22T10:48:47.853Z,3.53
2022-08-22T10:51:28.837Z,2.80
2022-08-22T10:54:32.592Z,3.25
2022-08-22T10:57:22.073Z,3.50
2022-08-22T11:00:02.221Z,2.95
2022-08-22T11:02:49.715Z,2.92
2022-08-22T11:05:40.818Z,2.83
2022-08-22T11:08:37.195Z,2.85
2022-08-22T11:11:37.659Z,3.17
2022-08-22T11:15:02.963Z,2.70
2022-08-22T11:18:18.719Z,2.80
2022-08-22T11:21:02.492Z,3.35
2022-08-22T11:23:48.231Z,2.58
2022-08-22T11:26:46.722Z,2.65
2022-08-22T11:29:39.632Z,3.55
2022-08-22T11:32:18.686Z,2.92
2022-08-22T11:34:58.411Z,3.17
2022-08-22T11:37:47.490Z,2.60
2022-08-22T11:40:33.652Z,2.60
2022-08-22T11:43:28.243Z,3.10
2022-08-22T11:46:20.082Z,3.17
2022-08-22T11:49:33.189Z,2.95
2022-08-22T11:52:41.506Z,3.50
2022-08-22T11:55:33.245Z,3.13
2022-08-22T11:58:29.026Z,2.97
2022-08-22T12:01:04.611Z,2.78
2022-08-22T12:03:47.238Z,3.00
2022-08-22T12:06:47.537Z,2.72
2022-08-22T12:09:44.144Z,2.42
2022-08-22T12:12:38.633Z,2.75
2022-08-22T12:15:21.271Z,2.97
2022-08-22T12:18:31.566Z,2.88
2022-08-22T12:21:38.397Z,2.90
2022-08-22T12:24:47.416Z,3.10
2022-08-22T12:27:49.713Z,2.90
2022-08-22T12:30:32.101Z,3.20
2022-08-22T12:33:23.180Z,2.88
2022-08-22T12:36:31.662Z,3.20
2022-08-22T12:39:52.321Z,3.25
2022-08-22T12:42:54.543Z,3.30
2022-08-22T12:45:47.784Z,2.78
2022-08-22T12:48:39.547Z,2.63
2022-08-22T12:51:25.226Z,2.80
2022-08-22T12:54:27.290Z,2.75
2022-08-22T12:57:23.306Z,3.25
2022-08-22T12:59:58.119Z,2.72
2022-08-22T13:02:31.564Z,2.83
2022-08-22T13:05:09.464Z,2.75
2022-08-22T13:07:42.283Z,2.72
2022-08-22T13:10:42.335Z,2.95
2022-08-22T13:13:36.471Z,2.88
2022-08-22T13:16:11.613Z,2.50
2022-08-22T13:18:53.758Z,3.05
2022-08-22T13:21:31.980Z,3.00
2022-08-22T13:24:12.678Z,2.88
2022-08-22T13:26:53.301Z,2.85
2022-08-22T13:29:34.978Z,2.90
2022-08-22T13:32:17.798Z,2.92
2022-08-22T13:34:51.894Z,3.13
2022-08-22T13:37:29.845Z,3.67
2022-08-22T13:40:06.317Z,3.03
2022-08-22T13:42:47.875Z,3.13
2022-08-22T13:45:26.302Z,2.85
2022-08-22T13:48:03.501Z,2.97
2022-08-22T13:50:37.101Z,3.03
2022-08-22T13:53:37.044Z,2.92
2022-08-22T13:56:15.845Z,2.70
2022-08-22T13:58:49.576Z,2.88
2022-08-22T14:01:45.914Z,3.72
2022-08-22T14:04:32.146Z,2.33
2022-08-22T14:07:29.594Z,2.78
2022-08-22T14:10:14.779Z,2.83
2022-08-22T14:13:31.345Z,2.65
2022-08-22T14:16:02.367Z,2.38
2022-08-22T14:18:46.130Z,3.20
2022-08-22T14:21:40.140Z,2.42
2022-08-22T14:24:19.843Z,3.20
2022-08-22T14:26:59.225Z,2.83
2022-08-22T14:29:42.191Z,2.60
2022-08-22T14:32:32.681Z,2.80
2022-08-22T14:35:21.692Z,2.67
2022-08-22T14:38:17.850Z,2.97
2022-08-22T14:40:53.263Z,2.58
2022-08-22T14:43:40.503Z,2.50
2022-08-22T14:46:15.457Z,2.53
2022-08-22T14:49:03.835Z,2.60
2022-08-22T14:51:33.967Z,2.63
2022-08-22T14:54:13.893Z,2.50
2022-08-22T14:56:43.889Z,2.67
2022-08-22T14:59:27.817Z,2.90
2022-08-22T15:02:03.187Z,2.30
2022-08-22T15:04:38.994Z,2.40
2022-08-22T15:07:11.510Z,2.38
2022-08-22T15:09:50.054Z,2.80
2022-08-22T15:12:28.544Z,2.63
2022-08-22T15:15:02.668Z,2.50
2022-08-22T15:17:50.795Z,2.75
2022-08-22T15:20:31.304Z,2.80
2022-08-22T15:23:15.747Z,2.83
2022-08-22T15:25:47.115Z,3.28
2022-08-22T15:28:21.627Z,3.00
2022-08-22T15:31:03.960Z,2.70
2022-08-22T15:33:43.322Z,2.97
2022-08-22T15:36:19.943Z,2.63
2022-08-22T15:38:52.442Z,2.38
2022-08-22T15:41:45.736Z,2.60
2022-08-22T15:44:32.166Z,2.88
2022-08-22T15:47:23.778Z,2.83
2022-08-22T15:49:58.444Z,2.40
2022-08-22T15:52:34.714Z,2.90
2022-08-22T15:55:25.578Z,2.60
2022-08-22T15:58:05.567Z,2.65
2022-08-22T16:00:43.505Z,3.17
2022-08-22T16:03:27.687Z,2.85
2022-08-22T16:05:59.919Z,3.20
2022-08-22T16:08:45.350Z,3.25
2022-08-22T16:11:33.250Z,3.42
2022-08-22T16:14:24.969Z,3.50
2022-08-22T16:17:01.884Z,2.78
2022-08-22T16:19:33.261Z,4.20
2022-08-22T16:22:14.290Z,2.95
2022-08-22T16:25:05.158Z,3.17
2022-08-22T16:27:37.519Z,2.90
2022-08-22T16:30:15.709Z,2.67
2022-08-22T16:32:57.198Z,3.45
2022-08-22T16:36:43.262Z,3.10
2022-08-22T16:39:34.509Z,3.40
2022-08-22T16:42:28.212Z,3.45
2022-08-22T16:45:18.022Z,2.67
2022-08-22T16:47:56.564Z,2.60
2022-08-22T16:50:40.891Z,2.80
2022-08-22T16:53:32.741Z,3.00
2022-08-22T16:56:24.725Z,3.17
2022-08-22T16:59:23.033Z,3.15
2022-08-22T17:02:39.508Z,3.20
2022-08-22T17:05:45.989Z,3.30
2022-08-22T17:08:35.089Z,2.80
2022-08-22T17:11:26.547Z,2.75
2022-08-22T17:14:13.508Z,3.28
2022-08-22T17:16:56.453Z,3.33
2022-08-22T17:19:47.736Z,3.10
2022-08-22T17:22:30.889Z,2.60
2022-08-22T17:25:18.899Z,2.90
2022-08-22T17:28:01.658Z,3.17
2022-08-22T17:30:45.904Z,3.08
2022-08-22T17:33:28.888Z,3.55
2022-08-22T17:36:26.348Z,3.10
2022-08-22T17:39:13.061Z,3.17
2022-08-22T17:41:56.097Z,3.42
2022-08-22T17:44:40.200Z,3.03
2022-08-22T17:47:16.135Z,2.50
2022-08-22T17:49:58.029Z,2.97
2022-08-22T17:52:38.316Z,3.25
2022-08-22T17:55:18.515Z,3.28
2022-08-22T17:57:54.465Z,3.33
2022-08-22T18:00:30.569Z,3.20
2022-08-22T18:03:08.737Z,3.00
2022-08-22T18:05:50.322Z,3.35
2022-08-22T18:08:38.731Z,2.97
2022-08-22T18:11:28.375Z,3.08
2022-08-22T18:14:05.276Z,3.55
2022-08-22T18:16:44.611Z,3.17
2022-08-22T18:19:34.874Z,3.53
2022-08-22T18:22:10.801Z,3.22
2022-08-22T18:24:48.773Z,3.28
2022-08-22T18:27:34.291Z,3.38
2022-08-22T18:30:16.322Z,3.45
2022-08-22T18:32:57.479Z,3.28
2022-08-22T18:35:35.164Z,3.17
2022-08-22T18:38:19.425Z,3.33
2022-08-22T18:40:58.132Z,3.35
2022-08-22T18:43:37.800Z,3.20
2022-08-22T18:46:31.713Z,3.35
2022-08-22T18:49:17.800Z,4.50
2022-08-22T18:52:14.915Z,3.60
2022-08-22T18:55:01.720Z,3.05
2022-08-22T18:57:56.466Z,2.97
2022-08-22T19:00:46.199Z,3.25
2022-08-22T19:03:36.019Z,3.88
2022-08-22T19:06:48.074Z,3.25
2022-08-22T19:10:07.254Z,3.15
2022-08-22T19:13:00.673Z,3.85
2022-08-22T19:15:42.429Z,3.80
2022-08-22T19:18:36.711Z,3.10
2022-08-22T19:21:41.874Z,3.60
2022-08-22T19:24:29.221Z,3.88
2022-08-22T19:27:31.409Z,4.13
2022-08-22T19:30:06.774Z,3.53
2022-08-22T19:33:04.721Z,3.10
2022-08-22T19:36:04.092Z,2.90
2022-08-22T19:38:55.180Z,3.22
2022-08-22T19:41:50.763Z,3.17
2022-08-22T19:44:42.488Z,3.40
2022-08-22T19:47:28.127Z,3.30
2022-08-22T19:50:05.326Z,3.20
2022-08-22T19:53:14.225Z,3.25
2022-08-22T19:56:13.951Z,3.75
2022-08-22T19:59:01.900Z,3.13
2022-08-22T20:01:45.560Z,3.33
2022-08-22T20:04:49.822Z,3.75
2022-08-22T20:07:32.878Z,3.50
2022-08-22T20:10:27.975Z,3.33
2022-08-22T20:13:07.629Z,3.72
2022-08-22T20:16:21.168Z,3.00
2022-08-22T20:19:18.963Z,3.47
2022-08-22T20:21:58.041Z,3.55
2022-08-22T20:24:40.004Z,2.90
2022-08-22T20:27:15.831Z,3.53
2022-08-22T20:29:52.224Z,3.00
2022-08-22T20:32:25.991Z,3.33
2022-08-22T20:35:02.214Z,3.08
2022-08-22T20:38:04.792Z,3.10
2022-08-22T20:40:55.306Z,2.97
2022-08-22T20:43:35.114Z,2.95
2022-08-22T20:46:21.724Z,3.30
2022-08-22T20:48:57.059Z,3.00
2022-08-22T20:51:29.297Z,2.95
2022-08-22T20:54:01.661Z,2.55
2022-08-22T20:56:48.641Z,2.60
2022-08-22T20:59:36.993Z,2.75
2022-08-22T21:02:15.648Z,2.83
2022-08-22T21:04:54.434Z,2.67
2022-08-22T21:07:27.801Z,2.38
2022-08-22T21:10:22.980Z,2.60
2022-08-22T21:13:14.234Z,2.70
2022-08-22T21:15:46.503Z,2.60
2022-08-22T21:18:28.652Z,2.75
2022-08-22T21:21:12.759Z,2.40
2022-08-22T21:23:49.965Z,2.72
2022-08-22T21:26:24.549Z,2.80
2022-08-22T21:29:01.316Z,2.72
2022-08-22T21:31:34.938Z,2.40
2022-08-22T21:34:05.710Z,2.47
2022-08-22T21:36:39.408Z,2.30
2022-08-22T21:39:18.265Z,2.53
2022-08-22T21:41:51.700Z,2.47
2022-08-22T21:44:33.351Z,2.20
2022-08-22T21:47:19.111Z,2.63
2022-08-22T21:50:10.141Z,2.50
2022-08-22T21:52:43.981Z,2.45
2022-08-22T21:55:27.364Z,2.90
2022-08-22T21:58:12.574Z,2.50
2022-08-22T22:00:49.499Z,2.72
2022-08-22T22:03:21.692Z,2.35
2022-08-22T22:05:52.730Z,2.60
2022-08-22T22:08:22.277Z,2.45
2022-08-22T22:10:51.691Z,2.60
2022-08-22T22:13:21.861Z,2.30
2022-08-22T22:15:56.277Z,2.72
2022-08-22T22:18:28.412Z,2.58
2022-08-22T22:20:57.954Z,2.60
2022-08-22T22:23:28.562Z,2.72
2022-08-22T22:26:01.054Z,2.85
2022-08-22T22:28:32.683Z,2.88
2022-08-22T22:31:01.268Z,2.72
2022-08-22T22:33:32.937Z,2.70
2022-08-22T22:36:07.786Z,2.45
2022-08-22T22:38:39.977Z,2.45
2022-08-22T22:41:08.516Z,2.50
2022-08-22T22:43:36.761Z,2.22
2022-08-22T22:46:05.115Z,2.72
2022-08-22T22:48:33.576Z,2.72
2022-08-22T22:51:09.483Z,2.70
2022-08-22T22:53:43.050Z,2.60
2022-08-22T22:56:16.758Z,2.67
2022-08-22T22:58:45.953Z,2.53
2022-08-22T23:01:19.662Z,2.30
2022-08-22T23:03:49.856Z,2.40
2022-08-22T23:06:21.486Z,3.20
2022-08-22T23:08:51.437Z,2.70
2022-08-22T23:11:25.005Z,2.58
2022-08-22T23:13:54.190Z,2.60
2022-08-22T23:16:26.742Z,2.85
2022-08-22T23:18:56.426Z,2.90
2022-08-22T23:21:27.677Z,2.80
2022-08-22T23:23:59.889Z,2.72
2022-08-22T23:26:28.840Z,2.92
2022-08-22T23:28:58.043Z,2.78
2022-08-22T23:31:31.436Z,2.55
2022-08-22T23:34:04.790Z,2.90
2022-08-22T23:36:33.676Z,2.55
2022-08-22T23:39:05.157Z,2.88
2022-08-22T23:41:34.253Z,3.17
2022-08-22T23:44:02.453Z,2.83
2022-08-22T23:46:31.187Z,3.03
2022-08-22T23:48:59.771Z,2.72
2022-08-22T23:51:28.464Z,2.95
2022-08-22T23:53:59.956Z,2.92
2022-08-22T23:56:33.603Z,3.08
2022-08-22T23:59:05.817Z,2.75
